DLH456 EDDF-KLAX
Flight info
| Callsign | DLH456 |
|---|---|
| Flight time | N/A |
| Altitude | 34000 |
| Route | OBOKA4S OBOKA Z28 DIBIR DCT BUDIP DCT MIMVA DCT GETNO DCT NIBOG DCT PIKIL/M083F340 DCT 5630N02000W 5730N03000W 5830N04000W 5930N05000W DCT URTAK/N0489F340 DCT LAKES DCT 57N070W 55N080W 5230N09000W DCT KP18A DCT KU06W DCT KD87U DCT KU54O DCT NORRA J107 BLD DCT HAKMN ANJLL4 |
| Aircraft | A346/H-SDE2E3FGHIJ3J4J5M1RWXY/LB1D1 |
Departure
| Time | 2026-05-06 07:26 |
|---|---|
| Airport | Frankfurt Main Airport (EDDF) |
Arrival
| Time | N/A |
|---|---|
| Airport | Los Angeles International Airport (KLAX) |
| Time | Latitude | Longitude | Altitude | Speed | Heading |
|---|---|---|---|---|---|
| 2026-05-06 06:57 | 50.04666 | 8.56048 | 364 ft | 0 kts | 342° |
| 2026-05-06 07:07 | 50.04655 | 8.56054 | 369 ft | 4 kts | 338° |
| 2026-05-06 07:08 | 50.04631 | 8.56069 | 368 ft | 3 kts | 340° |
| 2026-05-06 07:08 | 50.04612 | 8.56083 | 367 ft | 4 kts | 324° |
| 2026-05-06 07:08 | 50.04599 | 8.56106 | 367 ft | 4 kts | 291° |
| 2026-05-06 07:08 | 50.04596 | 8.56137 | 370 ft | 4 kts | 257° |
| 2026-05-06 07:09 | 50.04598 | 8.56147 | 366 ft | 4 kts | 251° |
| 2026-05-06 07:09 | 50.04589 | 8.56108 | 368 ft | 4 kts | 249° |
| 2026-05-06 07:09 | 50.04580 | 8.56072 | 368 ft | 1 kts | 250° |
| 2026-05-06 07:09 | 50.04580 | 8.56071 | 368 ft | 0 kts | 250° |
| 2026-05-06 07:12 | 50.04579 | 8.56070 | 368 ft | 0 kts | 250° |
| 2026-05-06 07:12 | 50.04575 | 8.56053 | 368 ft | 3 kts | 250° |
| 2026-05-06 07:12 | 50.04565 | 8.56010 | 366 ft | 5 kts | 250° |
| 2026-05-06 07:12 | 50.04539 | 8.55962 | 368 ft | 6 kts | 210° |
| 2026-05-06 07:13 | 50.04494 | 8.55936 | 367 ft | 7 kts | 195° |
| 2026-05-06 07:13 | 50.04441 | 8.55914 | 370 ft | 9 kts | 194° |
| 2026-05-06 07:13 | 50.04369 | 8.55917 | 369 ft | 12 kts | 163° |
| 2026-05-06 07:13 | 50.04291 | 8.55959 | 365 ft | 11 kts | 174° |
| 2026-05-06 07:14 | 50.04229 | 8.55892 | 367 ft | 13 kts | 240° |
| 2026-05-06 07:14 | 50.04195 | 8.55752 | 367 ft | 15 kts | 249° |
| 2026-05-06 07:14 | 50.04156 | 8.55594 | 366 ft | 16 kts | 249° |
| 2026-05-06 07:14 | 50.04117 | 8.55427 | 364 ft | 16 kts | 250° |
| 2026-05-06 07:15 | 50.04077 | 8.55260 | 366 ft | 16 kts | 250° |
| 2026-05-06 07:15 | 50.04038 | 8.55095 | 367 ft | 17 kts | 249° |
| 2026-05-06 07:15 | 50.03997 | 8.54926 | 365 ft | 17 kts | 249° |
| 2026-05-06 07:15 | 50.03954 | 8.54748 | 362 ft | 18 kts | 249° |
| 2026-05-06 07:16 | 50.03910 | 8.54562 | 358 ft | 19 kts | 249° |
| 2026-05-06 07:16 | 50.03858 | 8.54369 | 362 ft | 20 kts | 239° |
| 2026-05-06 07:16 | 50.03787 | 8.54170 | 360 ft | 22 kts | 248° |
| 2026-05-06 07:16 | 50.03733 | 8.53942 | 359 ft | 23 kts | 249° |
| 2026-05-06 07:17 | 50.03676 | 8.53705 | 355 ft | 22 kts | 249° |
| 2026-05-06 07:17 | 50.03650 | 8.53604 | 355 ft | 0 kts | 248° |
| 2026-05-06 07:17 | 50.03650 | 8.53602 | 358 ft | 0 kts | 248° |
| 2026-05-06 07:17 | 50.03642 | 8.53571 | 354 ft | 7 kts | 248° |
| 2026-05-06 07:18 | 50.03621 | 8.53488 | 354 ft | 9 kts | 249° |
| 2026-05-06 07:18 | 50.03595 | 8.53380 | 353 ft | 12 kts | 249° |
| 2026-05-06 07:18 | 50.03564 | 8.53253 | 356 ft | 13 kts | 250° |
| 2026-05-06 07:18 | 50.03537 | 8.53136 | 352 ft | 10 kts | 250° |
| 2026-05-06 07:19 | 50.03515 | 8.53044 | 353 ft | 9 kts | 250° |
| 2026-05-06 07:19 | 50.03501 | 8.52986 | 354 ft | 5 kts | 250° |
| 2026-05-06 07:19 | 50.03487 | 8.52930 | 350 ft | 6 kts | 246° |
| 2026-05-06 07:19 | 50.03483 | 8.52917 | 350 ft | 0 kts | 246° |
| 2026-05-06 07:20 | 50.03481 | 8.52911 | 350 ft | 2 kts | 246° |
| 2026-05-06 07:20 | 50.03473 | 8.52880 | 352 ft | 5 kts | 246° |
| 2026-05-06 07:20 | 50.03467 | 8.52859 | 353 ft | 1 kts | 246° |
| 2026-05-06 07:20 | 50.03461 | 8.52839 | 350 ft | 4 kts | 246° |
| 2026-05-06 07:21 | 50.03449 | 8.52791 | 349 ft | 6 kts | 249° |
| 2026-05-06 07:21 | 50.03440 | 8.52754 | 349 ft | 0 kts | 249° |
| 2026-05-06 07:21 | 50.03440 | 8.52753 | 349 ft | 0 kts | 249° |
| 2026-05-06 07:22 | 50.03439 | 8.52753 | 349 ft | 0 kts | 249° |
| 2026-05-06 07:22 | 50.03439 | 8.52750 | 349 ft | 0 kts | 249° |
| 2026-05-06 07:22 | 50.03437 | 8.52742 | 350 ft | 3 kts | 249° |
| 2026-05-06 07:23 | 50.03421 | 8.52677 | 349 ft | 8 kts | 249° |
| 2026-05-06 07:23 | 50.03394 | 8.52608 | 353 ft | 7 kts | 211° |
| 2026-05-06 07:23 | 50.03339 | 8.52593 | 349 ft | 9 kts | 180° |
| 2026-05-06 07:23 | 50.03328 | 8.52593 | 349 ft | 0 kts | 178° |
| 2026-05-06 07:24 | 50.03314 | 8.52594 | 353 ft | 9 kts | 179° |
| 2026-05-06 07:24 | 50.03119 | 8.52599 | 344 ft | 53 kts | 180° |
| 2026-05-06 07:25 | 50.02579 | 8.52601 | 349 ft | 101 kts | 180° |
| 2026-05-06 07:25 | 50.01731 | 8.52609 | 350 ft | 142 kts | 179° |
| 2026-05-06 07:25 | 50.00614 | 8.52622 | 338 ft | 176 kts | 179° |
| 2026-05-06 07:25 | 49.99325 | 8.52660 | 540 ft | 189 kts | 180° |
| 2026-05-06 07:26 | 49.98010 | 8.52627 | 998 ft | 190 kts | 191° |
| 2026-05-06 07:26 | 49.96831 | 8.51754 | 1431 ft | 193 kts | 224° |
| 2026-05-06 07:26 | 49.96141 | 8.49998 | 1895 ft | 196 kts | 246° |
| 2026-05-06 07:26 | 49.95376 | 8.48230 | 2283 ft | 201 kts | 226° |
| 2026-05-06 07:27 | 49.94273 | 8.46761 | 2377 ft | 218 kts | 220° |
| 2026-05-06 07:27 | 49.93084 | 8.45174 | 2624 ft | 227 kts | 224° |
| 2026-05-06 07:27 | 49.91916 | 8.43482 | 3073 ft | 235 kts | 225° |
| 2026-05-06 07:27 | 49.90701 | 8.41675 | 3310 ft | 248 kts | 225° |
| 2026-05-06 07:28 | 49.89431 | 8.39778 | 3743 ft | 253 kts | 225° |
| 2026-05-06 07:28 | 49.88177 | 8.37860 | 4369 ft | 253 kts | 231° |
| 2026-05-06 07:28 | 49.87423 | 8.32709 | 5553 ft | 260 kts | 284° |
| 2026-05-06 07:29 | 49.88226 | 8.30170 | 6174 ft | 266 kts | 300° |
| 2026-05-06 07:29 | 49.88910 | 8.28538 | 6582 ft | 268 kts | 300° |
| 2026-05-06 07:29 | 49.89932 | 8.26088 | 7161 ft | 271 kts | 299° |
| 2026-05-06 07:29 | 49.90961 | 8.23606 | 7739 ft | 275 kts | 299° |
| 2026-05-06 07:30 | 49.92002 | 8.21086 | 8351 ft | 278 kts | 299° |
| 2026-05-06 07:30 | 49.93036 | 8.18575 | 8963 ft | 282 kts | 300° |
| 2026-05-06 07:30 | 49.94223 | 8.16111 | 9562 ft | 288 kts | 308° |
| 2026-05-06 07:30 | 49.95653 | 8.13884 | 10082 ft | 294 kts | 315° |
| 2026-05-06 07:31 | 49.97239 | 8.11735 | 10391 ft | 308 kts | 316° |
| 2026-05-06 07:31 | 49.98913 | 8.09517 | 10657 ft | 323 kts | 316° |
| 2026-05-06 07:31 | 50.00658 | 8.07207 | 10912 ft | 337 kts | 316° |
| 2026-05-06 07:31 | 50.02478 | 8.04786 | 11165 ft | 351 kts | 316° |
| 2026-05-06 07:32 | 50.04372 | 8.02259 | 11412 ft | 365 kts | 316° |
| 2026-05-06 07:32 | 50.06303 | 7.99674 | 11686 ft | 377 kts | 316° |
| 2026-05-06 07:32 | 50.08340 | 7.96946 | 12176 ft | 383 kts | 316° |
| 2026-05-06 07:32 | 50.10348 | 7.94254 | 12794 ft | 385 kts | 316° |
| 2026-05-06 07:33 | 50.12388 | 7.91513 | 13421 ft | 388 kts | 316° |
| 2026-05-06 07:33 | 50.14441 | 7.88747 | 13936 ft | 391 kts | 316° |
| 2026-05-06 07:33 | 50.16506 | 7.85958 | 14445 ft | 394 kts | 316° |
| 2026-05-06 07:33 | 50.18591 | 7.83141 | 14956 ft | 397 kts | 316° |
| 2026-05-06 07:34 | 50.20694 | 7.80294 | 15486 ft | 401 kts | 316° |
| 2026-05-06 07:34 | 50.22811 | 7.77432 | 15963 ft | 405 kts | 317° |
| 2026-05-06 07:34 | 50.25077 | 7.74765 | 16470 ft | 410 kts | 323° |
| 2026-05-06 07:34 | 50.27541 | 7.72465 | 16997 ft | 415 kts | 330° |
| 2026-05-06 07:35 | 50.30158 | 7.70524 | 17508 ft | 418 kts | 333° |
| 2026-05-06 07:35 | 50.32811 | 7.68718 | 18009 ft | 422 kts | 334° |
| 2026-05-06 07:35 | 50.35516 | 7.66899 | 18459 ft | 424 kts | 334° |
| 2026-05-06 07:35 | 50.38238 | 7.65055 | 18889 ft | 427 kts | 334° |
| 2026-05-06 07:36 | 50.40972 | 7.63187 | 19318 ft | 430 kts | 334° |
| 2026-05-06 07:36 | 50.43718 | 7.61298 | 19751 ft | 432 kts | 334° |
| 2026-05-06 07:36 | 50.46482 | 7.59393 | 20172 ft | 435 kts | 334° |
| 2026-05-06 07:36 | 50.49258 | 7.57478 | 20602 ft | 437 kts | 334° |
| 2026-05-06 07:37 | 50.52050 | 7.55548 | 21027 ft | 440 kts | 333° |
| 2026-05-06 07:37 | 50.54825 | 7.53470 | 21425 ft | 442 kts | 330° |
| 2026-05-06 07:37 | 50.57523 | 7.51143 | 21850 ft | 443 kts | 327° |
| 2026-05-06 07:37 | 50.60157 | 7.48572 | 22262 ft | 445 kts | 325° |
| 2026-05-06 07:38 | 50.62759 | 7.45904 | 22688 ft | 448 kts | 325° |
| 2026-05-06 07:38 | 50.65337 | 7.43218 | 23050 ft | 451 kts | 326° |
| 2026-05-06 07:38 | 50.67970 | 7.40491 | 23388 ft | 454 kts | 326° |
| 2026-05-06 07:38 | 50.70623 | 7.37765 | 23688 ft | 456 kts | 326° |
| 2026-05-06 07:39 | 50.73163 | 7.34744 | 24023 ft | 458 kts | 319° |
| 2026-05-06 07:39 | 50.75456 | 7.31238 | 24367 ft | 459 kts | 311° |
| 2026-05-06 07:39 | 50.77470 | 7.27304 | 24677 ft | 460 kts | 306° |
| 2026-05-06 07:39 | 50.79340 | 7.23167 | 25002 ft | 462 kts | 304° |
| 2026-05-06 07:40 | 50.81184 | 7.18974 | 25319 ft | 465 kts | 304° |
| 2026-05-06 07:40 | 50.83073 | 7.14669 | 25628 ft | 467 kts | 304° |
| 2026-05-06 07:40 | 50.84941 | 7.10427 | 25952 ft | 469 kts | 304° |
| 2026-05-06 07:40 | 50.86821 | 7.06175 | 26245 ft | 471 kts | 305° |
| 2026-05-06 07:41 | 50.88706 | 7.01909 | 26539 ft | 474 kts | 305° |
| 2026-05-06 07:41 | 50.90575 | 6.97693 | 26821 ft | 476 kts | 305° |
| 2026-05-06 07:41 | 50.92490 | 6.93377 | 27146 ft | 478 kts | 305° |
| 2026-05-06 07:41 | 50.94400 | 6.89064 | 27450 ft | 480 kts | 305° |
| 2026-05-06 07:42 | 50.96316 | 6.84725 | 27862 ft | 479 kts | 305° |
| 2026-05-06 07:42 | 50.98225 | 6.80390 | 28311 ft | 477 kts | 305° |
| 2026-05-06 07:42 | 51.00118 | 6.76079 | 28764 ft | 476 kts | 305° |
| 2026-05-06 07:42 | 51.02021 | 6.71737 | 29189 ft | 475 kts | 305° |
| 2026-05-06 07:43 | 51.03909 | 6.67423 | 29601 ft | 475 kts | 306° |
| 2026-05-06 07:43 | 51.05792 | 6.63110 | 29981 ft | 474 kts | 305° |
| 2026-05-06 07:43 | 51.07678 | 6.58792 | 30282 ft | 474 kts | 305° |
| 2026-05-06 07:43 | 51.09570 | 6.54458 | 30588 ft | 475 kts | 305° |
| 2026-05-06 07:44 | 51.11455 | 6.50137 | 30898 ft | 475 kts | 304° |
| 2026-05-06 07:44 | 51.13308 | 6.45879 | 31233 ft | 474 kts | 304° |
| 2026-05-06 07:44 | 51.15184 | 6.41556 | 31578 ft | 473 kts | 304° |
| 2026-05-06 07:44 | 51.17053 | 6.37237 | 31896 ft | 472 kts | 304° |
| 2026-05-06 07:45 | 51.18913 | 6.32928 | 32155 ft | 472 kts | 303° |
| 2026-05-06 07:45 | 51.20777 | 6.28600 | 32342 ft | 474 kts | 303° |
| 2026-05-06 07:45 | 51.22646 | 6.24249 | 32550 ft | 475 kts | 303° |
| 2026-05-06 07:45 | 51.24514 | 6.19894 | 32765 ft | 475 kts | 303° |
| 2026-05-06 07:46 | 51.26383 | 6.15530 | 33014 ft | 476 kts | 303° |
| 2026-05-06 07:46 | 51.28247 | 6.11163 | 33290 ft | 475 kts | 303° |
| 2026-05-06 07:46 | 51.30075 | 6.06747 | 33538 ft | 475 kts | 302° |
| 2026-05-06 07:46 | 51.31878 | 6.02317 | 33727 ft | 476 kts | 302° |
| 2026-05-06 07:47 | 51.35598 | 5.93510 | 33811 ft | 478 kts | 305° |
| 2026-05-06 07:47 | 51.39857 | 5.85289 | 33820 ft | 479 kts | 311° |
| 2026-05-06 07:48 | 51.44614 | 5.77877 | 33822 ft | 481 kts | 317° |
| 2026-05-06 07:48 | 51.49628 | 5.70757 | 33825 ft | 479 kts | 317° |
| 2026-05-06 07:49 | 51.54621 | 5.63675 | 33825 ft | 478 kts | 317° |
| 2026-05-06 07:49 | 51.59609 | 5.56561 | 33833 ft | 479 kts | 317° |
| 2026-05-06 07:50 | 51.64583 | 5.49430 | 33833 ft | 479 kts | 317° |
| 2026-05-06 07:50 | 51.69551 | 5.42283 | 33839 ft | 479 kts | 317° |
| 2026-05-06 07:51 | 51.74513 | 5.35118 | 33843 ft | 478 kts | 317° |
| 2026-05-06 07:51 | 51.79465 | 5.27941 | 33855 ft | 477 kts | 317° |
| 2026-05-06 07:52 | 51.84370 | 5.20822 | 33854 ft | 477 kts | 317° |
| 2026-05-06 07:52 | 51.89309 | 5.13629 | 33855 ft | 477 kts | 317° |
| 2026-05-06 07:53 | 51.94261 | 5.06395 | 33848 ft | 478 kts | 317° |
| 2026-05-06 07:53 | 51.99196 | 4.99162 | 33854 ft | 478 kts | 317° |
| 2026-05-06 07:54 | 52.04102 | 4.91947 | 33863 ft | 478 kts | 317° |
| 2026-05-06 07:54 | 52.09015 | 4.84702 | 33872 ft | 475 kts | 316° |
| 2026-05-06 07:55 | 52.13906 | 4.77470 | 33875 ft | 475 kts | 316° |
| 2026-05-06 07:55 | 52.18795 | 4.70207 | 33879 ft | 475 kts | 316° |
| 2026-05-06 07:56 | 52.23694 | 4.62924 | 33858 ft | 477 kts | 316° |
| 2026-05-06 07:56 | 52.28578 | 4.55613 | 33857 ft | 475 kts | 316° |
| 2026-05-06 07:57 | 52.33460 | 4.48296 | 33871 ft | 474 kts | 316° |
| 2026-05-06 07:57 | 52.38324 | 4.40990 | 33871 ft | 474 kts | 316° |
| 2026-05-06 07:58 | 52.43155 | 4.33710 | 33888 ft | 475 kts | 316° |
| 2026-05-06 07:58 | 52.48017 | 4.26360 | 33886 ft | 475 kts | 315° |
| 2026-05-06 07:59 | 52.52871 | 4.18993 | 33892 ft | 475 kts | 316° |
| 2026-05-06 07:59 | 52.57721 | 4.11611 | 33901 ft | 474 kts | 315° |
| 2026-05-06 08:00 | 52.62561 | 4.04213 | 33906 ft | 473 kts | 316° |
| 2026-05-06 08:00 | 52.67381 | 3.96841 | 33922 ft | 472 kts | 315° |
| 2026-05-06 08:01 | 52.75141 | 3.84918 | 33923 ft | 471 kts | 314° |
| 2026-05-06 08:01 | 52.84642 | 3.70191 | 33924 ft | 471 kts | 315° |
| 2026-05-06 08:02 | 52.94195 | 3.55305 | 33937 ft | 470 kts | 314° |
| 2026-05-06 08:02 | 53.03629 | 3.40426 | 33927 ft | 466 kts | 311° |
| 2026-05-06 08:03 | 53.10348 | 3.24329 | 33930 ft | 459 kts | 293° |
| 2026-05-06 08:03 | 53.16074 | 2.90859 | 33948 ft | 459 kts | 282° |
| 2026-05-06 08:03 | 53.25528 | 2.26127 | 33960 ft | 456 kts | 282° |
| 2026-05-06 08:04 | 53.34020 | 1.65738 | 33968 ft | 456 kts | 282° |
| 2026-05-06 08:04 | 53.35445 | 1.55389 | 33975 ft | 455 kts | 282° |
| 2026-05-06 08:05 | 53.36859 | 1.45084 | 33972 ft | 452 kts | 281° |
| 2026-05-06 08:05 | 53.38256 | 1.34778 | 33975 ft | 451 kts | 281° |
| 2026-05-06 08:06 | 53.39614 | 1.24573 | 33976 ft | 450 kts | 281° |
| 2026-05-06 08:06 | 53.40975 | 1.14319 | 33986 ft | 450 kts | 281° |
| 2026-05-06 08:07 | 53.42331 | 1.04054 | 33987 ft | 450 kts | 281° |
| 2026-05-06 08:07 | 53.43685 | 0.93778 | 33992 ft | 449 kts | 281° |
| 2026-05-06 08:08 | 53.45031 | 0.83541 | 33993 ft | 449 kts | 281° |
| 2026-05-06 08:08 | 53.46372 | 0.73294 | 34003 ft | 449 kts | 281° |
| 2026-05-06 08:09 | 53.47701 | 0.63040 | 34004 ft | 449 kts | 281° |
| 2026-05-06 08:09 | 53.49546 | 0.53037 | 33882 ft | 450 kts | 297° |
| 2026-05-06 08:10 | 53.51300 | 0.48667 | 33372 ft | 452 kts | 309° |
| 2026-05-06 08:10 | 53.53592 | 0.44986 | 32494 ft | 460 kts | 321° |
| 2026-05-06 08:10 | 53.56349 | 0.42189 | 31620 ft | 469 kts | 334° |
| 2026-05-06 08:10 | 53.59423 | 0.40449 | 30871 ft | 475 kts | 346° |
| 2026-05-06 08:11 | 53.62724 | 0.39834 | 30172 ft | 480 kts | 358° |
| 2026-05-06 08:11 | 53.66059 | 0.40412 | 29345 ft | 485 kts | 10° |
| 2026-05-06 08:11 | 53.69300 | 0.42075 | 28517 ft | 489 kts | 18° |
| 2026-05-06 08:11 | 53.72459 | 0.44186 | 27890 ft | 487 kts | 20° |
| 2026-05-06 08:12 | 53.75566 | 0.46384 | 27434 ft | 482 kts | 21° |
| 2026-05-06 08:12 | 53.78638 | 0.48595 | 27051 ft | 476 kts | 21° |
| 2026-05-06 08:12 | 53.81691 | 0.50801 | 27026 ft | 478 kts | 21° |
| 2026-05-06 08:12 | 53.84763 | 0.53015 | 27015 ft | 480 kts | 21° |
| 2026-05-06 08:13 | 53.87851 | 0.55236 | 27018 ft | 482 kts | 21° |
| 2026-05-06 08:13 | 53.90940 | 0.57462 | 27019 ft | 484 kts | 21° |
| 2026-05-06 08:13 | 53.94045 | 0.59699 | 27019 ft | 484 kts | 21° |
| 2026-05-06 08:13 | 53.97144 | 0.61937 | 27025 ft | 484 kts | 21° |
| 2026-05-06 08:14 | 54.00201 | 0.64145 | 27032 ft | 484 kts | 21° |
| 2026-05-06 08:14 | 54.03298 | 0.66391 | 27024 ft | 484 kts | 21° |
| 2026-05-06 08:14 | 54.06401 | 0.68642 | 27019 ft | 484 kts | 21° |
| 2026-05-06 08:14 | 54.09497 | 0.70897 | 27019 ft | 484 kts | 21° |
| 2026-05-06 08:15 | 54.12593 | 0.73150 | 27018 ft | 484 kts | 21° |
| 2026-05-06 08:15 | 54.15691 | 0.75413 | 27028 ft | 484 kts | 21° |
| 2026-05-06 08:15 | 54.18792 | 0.77675 | 27027 ft | 484 kts | 21° |
| 2026-05-06 08:15 | 54.20847 | 0.79178 | 27027 ft | 484 kts | 21° |
| 2026-05-06 08:16 | 54.23942 | 0.81438 | 27027 ft | 484 kts | 21° |
| 2026-05-06 08:16 | 54.27018 | 0.83809 | 27020 ft | 486 kts | 26° |
| 2026-05-06 08:16 | 54.29786 | 0.87012 | 27011 ft | 475 kts | 39° |
| 2026-05-06 08:16 | 54.32031 | 0.91049 | 27012 ft | 461 kts | 53° |
| 2026-05-06 08:17 | 54.33621 | 0.95706 | 27006 ft | 446 kts | 68° |
| 2026-05-06 08:17 | 54.34446 | 1.00708 | 27015 ft | 429 kts | 84° |
| 2026-05-06 08:17 | 54.34447 | 1.05747 | 27016 ft | 420 kts | 101° |
| 2026-05-06 08:17 | 54.33644 | 1.10534 | 27016 ft | 416 kts | 116° |
| 2026-05-06 08:18 | 54.32404 | 1.15051 | 27021 ft | 415 kts | 120° |
| 2026-05-06 08:18 | 54.31080 | 1.19435 | 27017 ft | 413 kts | 121° |
| 2026-05-06 08:18 | 54.29744 | 1.23795 | 27016 ft | 414 kts | 121° |
| 2026-05-06 08:18 | 54.28403 | 1.28178 | 27006 ft | 415 kts | 121° |
| 2026-05-06 08:19 | 54.27064 | 1.32562 | 27009 ft | 415 kts | 121° |
| 2026-05-06 08:19 | 54.25737 | 1.36875 | 27008 ft | 414 kts | 121° |
| 2026-05-06 08:19 | 54.24389 | 1.41225 | 27006 ft | 414 kts | 121° |
| 2026-05-06 08:19 | 54.23041 | 1.45579 | 26991 ft | 414 kts | 121° |
| 2026-05-06 08:20 | 54.21693 | 1.49930 | 26991 ft | 413 kts | 121° |
| 2026-05-06 08:20 | 54.20344 | 1.54272 | 26993 ft | 412 kts | 121° |
| 2026-05-06 08:20 | 54.18993 | 1.58607 | 26995 ft | 412 kts | 121° |
| 2026-05-06 08:20 | 54.17641 | 1.62920 | 26990 ft | 411 kts | 121° |
| 2026-05-06 08:21 | 54.16294 | 1.67224 | 26997 ft | 410 kts | 121° |
| 2026-05-06 08:21 | 54.14947 | 1.71523 | 26994 ft | 410 kts | 121° |
| 2026-05-06 08:21 | 54.13598 | 1.75827 | 26994 ft | 410 kts | 121° |
| 2026-05-06 08:21 | 54.12251 | 1.80122 | 26986 ft | 410 kts | 121° |
| 2026-05-06 08:22 | 54.10902 | 1.84416 | 26992 ft | 410 kts | 121° |
| 2026-05-06 08:22 | 54.09552 | 1.88709 | 26992 ft | 410 kts | 121° |
| 2026-05-06 08:22 | 54.08200 | 1.93005 | 26987 ft | 410 kts | 121° |
| 2026-05-06 08:22 | 54.06847 | 1.97298 | 26986 ft | 410 kts | 121° |
| 2026-05-06 08:23 | 54.05518 | 2.01511 | 26988 ft | 410 kts | 121° |
| 2026-05-06 08:23 | 54.04166 | 2.05793 | 26987 ft | 410 kts | 121° |
| 2026-05-06 08:23 | 54.02811 | 2.10081 | 26986 ft | 410 kts | 122° |
| 2026-05-06 08:23 | 54.01463 | 2.14366 | 26974 ft | 410 kts | 122° |
| 2026-05-06 08:24 | 54.00129 | 2.18644 | 26975 ft | 409 kts | 122° |
| 2026-05-06 08:24 | 53.98798 | 2.22919 | 26977 ft | 409 kts | 122° |
| 2026-05-06 08:24 | 53.97465 | 2.27201 | 26977 ft | 409 kts | 122° |
| 2026-05-06 08:24 | 53.96132 | 2.31486 | 26967 ft | 408 kts | 122° |
| 2026-05-06 08:25 | 53.94826 | 2.35700 | 26972 ft | 408 kts | 122° |
| 2026-05-06 08:25 | 53.93496 | 2.39987 | 26974 ft | 408 kts | 122° |
| 2026-05-06 08:25 | 53.92174 | 2.44250 | 26975 ft | 408 kts | 122° |
| 2026-05-06 08:25 | 53.90817 | 2.48483 | 26958 ft | 406 kts | 127° |
| 2026-05-06 08:26 | 53.89004 | 2.52054 | 26959 ft | 397 kts | 145° |
| 2026-05-06 08:26 | 53.86689 | 2.54499 | 26958 ft | 389 kts | 162° |
| 2026-05-06 08:26 | 53.84095 | 2.55612 | 26964 ft | 382 kts | 179° |
| 2026-05-06 08:26 | 53.81469 | 2.55311 | 26959 ft | 377 kts | 197° |
| 2026-05-06 08:27 | 53.79067 | 2.53650 | 26960 ft | 373 kts | 214° |
| 2026-05-06 08:27 | 53.77110 | 2.50802 | 26959 ft | 372 kts | 231° |
| 2026-05-06 08:27 | 53.75674 | 2.47150 | 26977 ft | 373 kts | 240° |
| 2026-05-06 08:27 | 53.74424 | 2.43303 | 26969 ft | 373 kts | 241° |
| 2026-05-06 08:28 | 53.73212 | 2.39422 | 26967 ft | 373 kts | 242° |
| 2026-05-06 08:28 | 53.72006 | 2.35530 | 26961 ft | 373 kts | 242° |
| 2026-05-06 08:28 | 53.70804 | 2.31638 | 26953 ft | 373 kts | 242° |
| 2026-05-06 08:28 | 53.69603 | 2.27740 | 26964 ft | 374 kts | 242° |
| 2026-05-06 08:29 | 53.68416 | 2.23881 | 26968 ft | 374 kts | 242° |
| 2026-05-06 08:29 | 53.67215 | 2.19980 | 26968 ft | 374 kts | 242° |
| 2026-05-06 08:29 | 53.66012 | 2.16080 | 26970 ft | 374 kts | 242° |
| 2026-05-06 08:29 | 53.64808 | 2.12181 | 26968 ft | 374 kts | 242° |
| 2026-05-06 08:30 | 53.63604 | 2.08283 | 26969 ft | 374 kts | 242° |
| 2026-05-06 08:30 | 53.62395 | 2.04395 | 26982 ft | 375 kts | 242° |